createdAt,value
2023-04-01T00:41:15.922Z,11.30
2023-04-01T00:51:05.399Z,11.20
2023-04-01T02:01:13.924Z,11.00
2023-04-01T02:05:24.972Z,11.00
2023-04-01T02:09:27.235Z,11.00
2023-04-01T02:13:54.198Z,11.00
2023-04-01T02:17:58.098Z,11.00
2023-04-01T02:22:02.109Z,11.00
2023-04-01T02:26:06.112Z,11.10
2023-04-01T02:30:08.510Z,11.10
2023-04-01T02:34:10.198Z,11.10
2023-04-01T02:38:11.980Z,11.00
2023-04-01T02:42:14.712Z,11.10
2023-04-01T02:46:16.443Z,11.10
2023-04-01T02:50:18.154Z,11.00
2023-04-01T02:54:20.518Z,11.00
2023-04-01T02:58:22.296Z,10.90
2023-04-01T03:02:24.240Z,10.90
2023-04-01T03:06:26.018Z,10.90
2023-04-01T03:10:27.729Z,10.90
2023-04-01T03:14:29.475Z,10.90
2023-04-01T03:18:31.252Z,11.00
2023-04-01T03:22:33.024Z,10.90
2023-04-01T03:26:34.785Z,10.90
2023-04-01T03:30:36.615Z,10.90
2023-04-01T03:34:38.483Z,10.90
2023-04-01T03:38:41.693Z,10.80
2023-04-01T03:42:43.577Z,10.90
2023-04-01T03:46:45.507Z,10.90
2023-04-01T03:50:47.471Z,10.90
2023-04-01T03:54:55.869Z,10.90
2023-04-01T03:58:57.624Z,11.00
2023-04-01T04:02:59.810Z,11.00
2023-04-01T04:07:01.650Z,11.00
2023-04-01T04:11:03.302Z,11.00
2023-04-01T04:15:05.627Z,11.00
2023-04-01T04:19:07.382Z,10.90
2023-04-01T04:23:09.118Z,11.00
2023-04-01T04:27:10.873Z,11.00
2023-04-01T04:31:12.831Z,11.00
2023-04-01T04:35:14.784Z,11.00
2023-04-01T04:39:16.641Z,11.00
2023-04-01T04:43:18.645Z,11.00
2023-04-01T04:47:20.552Z,11.10
2023-04-01T04:51:22.592Z,11.10
2023-04-01T04:55:24.456Z,11.10
2023-04-01T04:59:26.324Z,11.10
2023-04-01T05:03:28.165Z,11.10
2023-04-01T05:07:34.889Z,11.10
2023-04-01T05:11:36.868Z,11.10
2023-04-01T05:15:38.620Z,11.10
2023-04-01T05:19:40.619Z,11.20
2023-04-01T05:23:42.997Z,11.20
2023-04-01T05:27:44.935Z,11.20
2023-04-01T05:31:50.008Z,11.20
2023-04-01T05:35:54.764Z,11.20
2023-04-01T05:44:38.686Z,11.30
2023-04-01T05:48:45.300Z,11.30
2023-04-01T05:52:56.000Z,11.40
2023-04-01T05:56:57.773Z,11.40
2023-04-01T06:01:12.722Z,11.40
2023-04-01T06:05:20.279Z,11.40
2023-04-01T06:09:30.257Z,11.50
2023-04-01T06:13:53.643Z,11.40
2023-04-01T06:17:59.252Z,11.50
2023-04-01T06:22:13.819Z,11.60
2023-04-01T06:26:27.394Z,11.70
2023-04-01T06:30:42.350Z,11.80
2023-04-01T06:35:25.911Z,11.90
2023-04-01T06:39:33.612Z,12.10
2023-04-01T06:48:43.605Z,12.30
2023-04-01T06:53:06.796Z,12.40
2023-04-01T06:57:35.949Z,12.50
2023-04-01T07:01:43.965Z,12.70
2023-04-01T07:05:45.938Z,12.80
2023-04-01T07:09:52.735Z,13.00
2023-04-01T07:14:18.289Z,12.90
2023-04-01T07:18:23.349Z,12.90
2023-04-01T07:22:37.762Z,12.90
2023-04-01T07:26:43.243Z,13.00
2023-04-01T07:31:26.237Z,13.00
2023-04-01T07:35:37.147Z,13.20
2023-04-01T07:39:56.933Z,13.30
2023-04-01T07:44:16.512Z,13.30
2023-04-01T07:48:32.985Z,13.40
2023-04-01T07:52:36.289Z,13.30
2023-04-01T07:56:52.994Z,13.30
2023-04-01T08:01:02.716Z,13.30
2023-04-01T08:05:27.285Z,13.50
2023-04-01T08:09:45.286Z,13.50
2023-04-01T08:14:23.707Z,13.60
2023-04-01T08:18:37.040Z,14.20
2023-04-01T08:22:43.397Z,14.90
2023-04-01T08:26:49.341Z,15.00
2023-04-01T08:30:55.241Z,15.30
2023-04-01T08:35:09.360Z,15.40
2023-04-01T08:39:16.748Z,15.50
2023-04-01T08:43:41.653Z,15.40
2023-04-01T08:47:57.933Z,15.10
2023-04-01T08:52:08.873Z,15.00
2023-04-01T08:56:16.501Z,15.10
2023-04-01T09:00:32.748Z,15.00
2023-04-01T09:05:11.848Z,15.00
2023-04-01T09:09:41.450Z,15.00
2023-04-01T09:13:56.547Z,14.90
2023-04-01T09:18:39.511Z,14.90
2023-04-01T09:23:09.613Z,14.80
2023-04-01T09:27:32.927Z,15.00
2023-04-01T09:32:06.957Z,15.10
2023-04-01T09:36:33.153Z,15.00
2023-04-01T09:41:59.558Z,15.30
2023-04-01T09:46:24.763Z,15.30
2023-04-01T09:50:53.198Z,15.30
2023-04-01T09:55:07.651Z,15.30
2023-04-01T09:59:09.497Z,15.50
2023-04-01T10:03:39.113Z,15.40
2023-04-01T10:08:37.950Z,15.40
2023-04-01T10:13:14.296Z,15.40
2023-04-01T10:17:31.744Z,15.40
2023-04-01T10:22:00.960Z,15.40
2023-04-01T10:26:24.017Z,15.20
2023-04-01T10:30:57.487Z,15.20
2023-04-01T10:35:21.327Z,15.00
2023-04-01T10:39:49.132Z,14.90
2023-04-01T10:43:56.572Z,14.70
2023-04-01T10:48:13.281Z,14.80
2023-04-01T10:52:33.178Z,14.70
2023-04-01T10:56:57.055Z,14.80
2023-04-01T11:01:23.473Z,14.90
2023-04-01T11:05:47.060Z,15.00
2023-04-01T11:09:54.658Z,15.10
2023-04-01T11:14:23.258Z,15.30
2023-04-01T11:18:42.883Z,15.70
2023-04-01T11:22:59.412Z,15.90
2023-04-01T11:27:13.146Z,16.00
2023-04-01T11:31:30.750Z,16.20
2023-04-01T11:36:03.334Z,16.30
2023-04-01T11:40:14.039Z,16.30
2023-04-01T11:44:23.483Z,16.10
2023-04-01T11:48:34.592Z,16.10
2023-04-01T11:53:03.254Z,15.90
2023-04-01T11:57:29.886Z,16.00
2023-04-01T12:01:49.297Z,16.30
2023-04-01T12:06:03.205Z,16.40
2023-04-01T12:10:04.894Z,16.80
2023-04-01T12:14:19.471Z,16.70
2023-04-01T12:18:44.307Z,16.80
2023-04-01T12:23:07.767Z,16.90
2023-04-01T12:27:24.690Z,16.70
2023-04-01T12:31:36.269Z,16.60
2023-04-01T12:35:56.979Z,16.40
2023-04-01T12:40:22.120Z,16.30
2023-04-01T12:44:36.428Z,16.40
2023-04-01T12:48:54.808Z,16.50
2023-04-01T12:53:07.262Z,16.60
2023-04-01T12:58:03.728Z,16.80
2023-04-01T13:02:29.815Z,16.90
2023-04-01T13:06:51.899Z,17.00
2023-04-01T13:11:19.275Z,17.10
2023-04-01T13:15:25.969Z,17.40
2023-04-01T13:19:33.652Z,17.40
2023-04-01T13:23:51.301Z,17.60
2023-04-01T13:28:00.843Z,17.20
2023-04-01T13:32:14.530Z,17.00
2023-04-01T13:36:53.568Z,17.00
2023-04-01T13:41:04.101Z,16.80
2023-04-01T13:45:24.205Z,17.00
2023-04-01T13:50:19.469Z,17.20
2023-04-01T13:54:30.149Z,17.00
2023-04-01T13:58:55.825Z,16.90
2023-04-01T14:03:25.344Z,16.70
2023-04-01T14:07:38.063Z,16.90
2023-04-01T14:11:55.117Z,17.10
2023-04-01T14:16:30.613Z,17.30
2023-04-01T14:21:04.208Z,17.40
2023-04-01T14:25:31.528Z,17.10
2023-04-01T14:30:13.514Z,17.20
2023-04-01T14:34:39.143Z,17.20
2023-04-01T14:39:02.269Z,17.00
2023-04-01T14:43:38.659Z,16.80
2023-04-01T14:48:01.021Z,16.70
2023-04-01T14:52:28.033Z,16.40
2023-04-01T14:56:43.921Z,16.40
2023-04-01T15:00:53.249Z,16.30
2023-04-01T15:05:09.162Z,16.20
2023-04-01T15:09:24.651Z,16.20
2023-04-01T15:13:41.455Z,16.10
2023-04-01T15:17:45.416Z,15.90
2023-04-01T15:22:16.481Z,15.80
2023-04-01T15:26:28.069Z,15.60
2023-04-01T15:30:41.154Z,15.70
2023-04-01T15:35:01.331Z,15.80
2023-04-01T15:39:16.271Z,15.90
2023-04-01T15:43:33.444Z,15.80
2023-04-01T15:47:38.855Z,15.60
2023-04-01T15:52:17.852Z,15.40
2023-04-01T15:56:42.321Z,15.30
2023-04-01T16:01:13.345Z,15.20
2023-04-01T16:05:39.584Z,15.00
2023-04-01T16:10:11.434Z,15.00
2023-04-01T16:14:36.858Z,15.00
2023-04-01T16:19:20.560Z,15.00
2023-04-01T16:23:30.043Z,15.00
2023-04-01T16:27:41.237Z,15.00
2023-04-01T16:32:03.018Z,14.90
2023-04-01T16:36:27.390Z,14.80
2023-04-01T16:40:54.639Z,14.80
2023-04-01T16:45:02.188Z,14.60
2023-04-01T16:49:17.985Z,14.70
2023-04-01T16:54:19.849Z,14.60
2023-04-01T16:58:33.497Z,14.60
2023-04-01T17:02:41.498Z,14.40
2023-04-01T17:07:18.015Z,14.40
2023-04-01T17:11:43.363Z,14.40
2023-04-01T17:20:50.465Z,14.20
2023-04-01T17:25:10.241Z,14.10
2023-04-01T17:30:04.567Z,14.10
2023-04-01T17:34:17.202Z,14.00
2023-04-01T17:38:41.780Z,13.90
2023-04-01T17:42:49.520Z,13.90
2023-04-01T17:47:25.192Z,13.80
2023-04-01T17:51:40.354Z,13.70
2023-04-01T17:56:00.402Z,13.60
2023-04-01T18:00:05.032Z,13.40
2023-04-01T18:04:30.071Z,13.40
2023-04-01T18:13:59.565Z,13.50
2023-04-01T18:18:28.624Z,13.50
2023-04-01T18:22:48.358Z,13.40
2023-04-01T18:27:41.349Z,13.50
2023-04-01T18:36:36.521Z,13.40
2023-04-01T18:40:44.375Z,13.30
2023-04-01T18:45:00.391Z,13.20
2023-04-01T18:49:30.291Z,13.20
2023-04-01T18:53:39.938Z,13.10
2023-04-01T18:57:59.951Z,13.10
2023-04-01T19:02:39.076Z,13.00
2023-04-01T19:07:42.158Z,12.90
2023-04-01T19:12:24.559Z,12.80
2023-04-01T19:17:21.099Z,12.70
2023-04-01T19:21:43.729Z,12.60
2023-04-01T19:26:02.347Z,12.60
2023-04-01T19:30:12.061Z,12.50
2023-04-01T19:35:00.158Z,12.40
2023-04-01T19:39:11.389Z,12.40
2023-04-01T19:43:53.893Z,12.20
2023-04-01T19:48:04.473Z,12.10
2023-04-01T19:52:19.223Z,12.00
2023-04-01T19:56:24.510Z,12.10
2023-04-01T20:00:48.192Z,12.00
2023-04-01T20:04:52.442Z,12.00
2023-04-01T20:09:14.528Z,12.00
2023-04-01T20:13:58.014Z,12.00
2023-04-01T20:18:04.847Z,12.00
2023-04-01T20:22:29.327Z,12.00
2023-04-01T20:26:33.941Z,12.00
2023-04-01T20:30:57.292Z,11.90
2023-04-01T20:35:12.681Z,12.00
2023-04-01T20:39:41.171Z,12.00
2023-04-01T20:43:55.480Z,12.00
2023-04-01T20:48:35.280Z,12.00
2023-04-01T20:52:47.607Z,12.00
2023-04-01T20:57:12.023Z,11.90
2023-04-01T21:01:27.447Z,11.90
2023-04-01T21:05:53.935Z,11.80
2023-04-01T21:10:25.020Z,11.70
2023-04-01T21:14:49.582Z,11.60
2023-04-01T21:19:11.636Z,11.50
2023-04-01T21:23:48.772Z,11.40
2023-04-01T21:28:09.828Z,11.20
2023-04-01T21:33:13.678Z,11.20
2023-04-01T21:37:37.811Z,11.10
2023-04-01T21:41:50.488Z,11.10
2023-04-01T21:46:17.643Z,11.00
2023-04-01T21:50:41.613Z,11.00
2023-04-01T21:54:55.451Z,10.90
2023-04-01T21:59:33.369Z,10.70
2023-04-01T22:04:10.360Z,10.60
2023-04-01T22:08:27.470Z,10.60
2023-04-01T22:13:06.564Z,10.50
2023-04-01T22:17:21.067Z,10.20
2023-04-01T22:21:39.793Z,10.20
2023-04-01T22:25:53.587Z,10.10
2023-04-01T22:30:02.609Z,9.90
2023-04-01T22:34:16.218Z,9.90
2023-04-01T22:38:57.103Z,9.80
2023-04-01T22:43:12.658Z,9.80
2023-04-01T22:47:20.338Z,9.70
2023-04-01T22:51:30.996Z,9.50
2023-04-01T22:55:35.123Z,9.60
2023-04-01T23:00:09.660Z,9.50
2023-04-01T23:04:12.687Z,9.50
2023-04-01T23:08:49.776Z,9.30
2023-04-01T23:12:52.708Z,9.20
2023-04-01T23:17:08.720Z,9.20
2023-04-01T23:21:40.725Z,9.10
2023-04-01T23:25:57.754Z,9.10
2023-04-01T23:29:59.568Z,9.00
2023-04-01T23:34:19.252Z,8.90
2023-04-01T23:38:22.480Z,8.80
2023-04-01T23:42:31.290Z,8.70
2023-04-01T23:46:35.953Z,8.70
2023-04-01T23:50:37.778Z,8.60
2023-04-01T23:54:47.353Z,8.50
2023-04-01T23:58:53.423Z,8.50
